sensor_id;sensor_type;location;lat;lon;timestamp;temperature;humidity
57088;DHT22;42965;52.846;6.614;2022-12-31T00:01:59;12.40;99.90
57088;DHT22;42965;52.846;6.614;2022-12-31T00:04:25;12.40;99.90
57088;DHT22;42965;52.846;6.614;2022-12-31T00:06:52;12.30;99.90
57088;DHT22;42965;52.846;6.614;2022-12-31T00:09:20;12.30;99.90
57088;DHT22;42965;52.846;6.614;2022-12-31T00:11:46;12.30;99.90
57088;DHT22;42965;52.846;6.614;2022-12-31T00:14:13;12.30;99.90
57088;DHT22;42965;52.846;6.614;2022-12-31T00:16:40;12.30;99.90
57088;DHT22;42965;52.846;6.614;2022-12-31T00:19:10;12.20;99.90
57088;DHT22;42965;52.846;6.614;2022-12-31T00:21:37;12.20;99.90
57088;DHT22;42965;52.846;6.614;2022-12-31T00:24:05;12.20;99.90
57088;DHT22;42965;52.846;6.614;2022-12-31T00:26:33;12.20;99.90
57088;DHT22;42965;52.846;6.614;2022-12-31T00:29:00;12.20;99.90
57088;DHT22;42965;52.846;6.614;2022-12-31T00:31:30;12.20;99.90
57088;DHT22;42965;52.846;6.614;2022-12-31T00:33:57;12.20;99.90
57088;DHT22;42965;52.846;6.614;2022-12-31T00:36:26;12.20;99.90
57088;DHT22;42965;52.846;6.614;2022-12-31T00:38:54;12.20;99.90
57088;DHT22;42965;52.846;6.614;2022-12-31T00:41:22;12.20;99.90
57088;DHT22;42965;52.846;6.614;2022-12-31T00:43:49;12.10;99.90
57088;DHT22;42965;52.846;6.614;2022-12-31T00:46:16;12.20;99.90
57088;DHT22;42965;52.846;6.614;2022-12-31T00:48:43;12.20;99.90
57088;DHT22;42965;52.846;6.614;2022-12-31T00:51:11;12.20;99.90
57088;DHT22;42965;52.846;6.614;2022-12-31T00:53:38;12.20;99.90
57088;DHT22;42965;52.846;6.614;2022-12-31T00:56:10;12.20;99.90
57088;DHT22;42965;52.846;6.614;2022-12-31T00:58:37;12.30;99.90
57088;DHT22;42965;52.846;6.614;2022-12-31T01:01:18;12.20;99.90
57088;DHT22;42965;52.846;6.614;2022-12-31T01:03:47;12.20;99.90
57088;DHT22;42965;52.846;6.614;2022-12-31T01:06:15;12.20;99.90
57088;DHT22;42965;52.846;6.614;2022-12-31T01:08:46;12.30;99.90
57088;DHT22;42965;52.846;6.614;2022-12-31T01:11:14;12.30;99.90
57088;DHT22;42965;52.846;6.614;2022-12-31T01:13:52;12.30;99.90
57088;DHT22;42965;52.846;6.614;2022-12-31T01:16:22;12.30;99.90
57088;DHT22;42965;52.846;6.614;2022-12-31T01:18:49;12.30;99.90
57088;DHT22;42965;52.846;6.614;2022-12-31T01:21:17;12.30;99.90
57088;DHT22;42965;52.846;6.614;2022-12-31T01:23:44;12.30;99.90
57088;DHT22;42965;52.846;6.614;2022-12-31T01:26:12;12.30;99.90
57088;DHT22;42965;52.846;6.614;2022-12-31T01:28:39;12.30;99.90
57088;DHT22;42965;52.846;6.614;2022-12-31T01:31:11;12.30;99.90
57088;DHT22;42965;52.846;6.614;2022-12-31T01:33:39;12.30;99.90
57088;DHT22;42965;52.846;6.614;2022-12-31T01:36:09;12.30;99.90
57088;DHT22;42965;52.846;6.614;2022-12-31T01:38:36;12.30;99.90
57088;DHT22;42965;52.846;6.614;2022-12-31T01:41:03;12.20;99.90
57088;DHT22;42965;52.846;6.614;2022-12-31T01:43:49;12.20;99.90
57088;DHT22;42965;52.846;6.614;2022-12-31T01:46:44;12.20;99.90
57088;DHT22;42965;52.846;6.614;2022-12-31T01:49:35;12.20;99.90
57088;DHT22;42965;52.846;6.614;2022-12-31T01:54:32;12.10;99.90
57088;DHT22;42965;52.846;6.614;2022-12-31T01:57:00;12.20;99.90
57088;DHT22;42965;52.846;6.614;2022-12-31T01:59:29;12.10;99.90
57088;DHT22;42965;52.846;6.614;2022-12-31T02:01:57;12.00;99.90
57088;DHT22;42965;52.846;6.614;2022-12-31T02:04:29;12.00;99.90
57088;DHT22;42965;52.846;6.614;2022-12-31T02:07:05;12.00;99.90
57088;DHT22;42965;52.846;6.614;2022-12-31T02:09:34;12.00;99.90
57088;DHT22;42965;52.846;6.614;2022-12-31T02:12:01;12.00;99.90
57088;DHT22;42965;52.846;6.614;2022-12-31T02:14:43;12.00;99.90
57088;DHT22;42965;52.846;6.614;2022-12-31T02:25:35;12.00;99.90
57088;DHT22;42965;52.846;6.614;2022-12-31T02:28:36;11.90;99.90
57088;DHT22;42965;52.846;6.614;2022-12-31T02:31:17;11.90;99.90
57088;DHT22;42965;52.846;6.614;2022-12-31T02:33:55;11.90;99.90
57088;DHT22;42965;52.846;6.614;2022-12-31T02:36:32;11.80;99.90
57088;DHT22;42965;52.846;6.614;2022-12-31T02:39:03;11.80;99.90
57088;DHT22;42965;52.846;6.614;2022-12-31T02:41:30;11.80;99.90
57088;DHT22;42965;52.846;6.614;2022-12-31T02:47:17;11.70;99.90
57088;DHT22;42965;52.846;6.614;2022-12-31T02:52:55;11.60;99.90
57088;DHT22;42965;52.846;6.614;2022-12-31T03:00:52;11.40;99.90
57088;DHT22;42965;52.846;6.614;2022-12-31T03:03:39;11.50;99.90
57088;DHT22;42965;52.846;6.614;2022-12-31T03:06:07;11.50;99.90
57088;DHT22;42965;52.846;6.614;2022-12-31T03:08:41;11.50;99.90
57088;DHT22;42965;52.846;6.614;2022-12-31T03:11:27;11.40;99.90
57088;DHT22;42965;52.846;6.614;2022-12-31T03:14:12;11.40;99.90
57088;DHT22;42965;52.846;6.614;2022-12-31T03:16:39;11.40;99.90
57088;DHT22;42965;52.846;6.614;2022-12-31T03:19:19;11.30;99.90
57088;DHT22;42965;52.846;6.614;2022-12-31T03:22:04;11.30;99.90
57088;DHT22;42965;52.846;6.614;2022-12-31T03:24:49;11.30;99.90
57088;DHT22;42965;52.846;6.614;2022-12-31T03:27:35;11.30;99.90
57088;DHT22;42965;52.846;6.614;2022-12-31T03:30:03;11.30;99.90
57088;DHT22;42965;52.846;6.614;2022-12-31T03:32:41;11.30;99.90
57088;DHT22;42965;52.846;6.614;2022-12-31T03:35:11;11.30;99.90
57088;DHT22;42965;52.846;6.614;2022-12-31T03:37:39;11.30;99.90
57088;DHT22;42965;52.846;6.614;2022-12-31T03:40:07;11.40;99.90
57088;DHT22;42965;52.846;6.614;2022-12-31T03:42:37;11.40;99.90
57088;DHT22;42965;52.846;6.614;2022-12-31T03:45:04;11.30;99.90
57088;DHT22;42965;52.846;6.614;2022-12-31T03:47:31;11.40;99.90
57088;DHT22;42965;52.846;6.614;2022-12-31T03:49:58;11.40;99.90
57088;DHT22;42965;52.846;6.614;2022-12-31T03:52:24;11.30;99.90
57088;DHT22;42965;52.846;6.614;2022-12-31T03:54:50;11.30;99.90
57088;DHT22;42965;52.846;6.614;2022-12-31T03:57:17;11.40;99.90
57088;DHT22;42965;52.846;6.614;2022-12-31T03:59:43;11.40;99.90
57088;DHT22;42965;52.846;6.614;2022-12-31T04:02:12;11.40;99.90
57088;DHT22;42965;52.846;6.614;2022-12-31T04:04:39;11.40;99.90
57088;DHT22;42965;52.846;6.614;2022-12-31T04:07:05;11.50;99.90
57088;DHT22;42965;52.846;6.614;2022-12-31T04:09:32;11.50;99.90
57088;DHT22;42965;52.846;6.614;2022-12-31T04:11:58;11.50;99.90
57088;DHT22;42965;52.846;6.614;2022-12-31T04:14:24;11.50;99.90
57088;DHT22;42965;52.846;6.614;2022-12-31T04:16:51;11.50;99.90
57088;DHT22;42965;52.846;6.614;2022-12-31T04:19:17;11.40;99.90
57088;DHT22;42965;52.846;6.614;2022-12-31T04:21:44;11.40;99.90
57088;DHT22;42965;52.846;6.614;2022-12-31T04:24:10;11.40;99.90
57088;DHT22;42965;52.846;6.614;2022-12-31T04:26:37;11.50;99.90
57088;DHT22;42965;52.846;6.614;2022-12-31T04:29:04;11.50;99.90
57088;DHT22;42965;52.846;6.614;2022-12-31T04:31:32;11.50;99.90
57088;DHT22;42965;52.846;6.614;2022-12-31T04:33:59;11.50;99.90
57088;DHT22;42965;52.846;6.614;2022-12-31T04:36:26;11.50;99.90
57088;DHT22;42965;52.846;6.614;2022-12-31T04:38:53;11.50;99.90
57088;DHT22;42965;52.846;6.614;2022-12-31T04:41:19;11.50;99.90
57088;DHT22;42965;52.846;6.614;2022-12-31T04:43:49;11.40;99.90
57088;DHT22;42965;52.846;6.614;2022-12-31T04:46:17;11.40;99.90
57088;DHT22;42965;52.846;6.614;2022-12-31T04:48:49;11.40;99.90
57088;DHT22;42965;52.846;6.614;2022-12-31T04:51:16;11.40;99.90
57088;DHT22;42965;52.846;6.614;2022-12-31T04:53:43;11.40;99.90
57088;DHT22;42965;52.846;6.614;2022-12-31T04:56:10;11.30;99.90
57088;DHT22;42965;52.846;6.614;2022-12-31T04:58:37;11.40;99.90
57088;DHT22;42965;52.846;6.614;2022-12-31T05:01:04;11.30;99.90
57088;DHT22;42965;52.846;6.614;2022-12-31T05:03:31;11.30;99.90
57088;DHT22;42965;52.846;6.614;2022-12-31T05:06:02;11.30;99.90
57088;DHT22;42965;52.846;6.614;2022-12-31T05:08:29;11.30;99.90
57088;DHT22;42965;52.846;6.614;2022-12-31T05:10:57;11.30;99.90
57088;DHT22;42965;52.846;6.614;2022-12-31T05:13:24;11.30;99.90
57088;DHT22;42965;52.846;6.614;2022-12-31T05:15:50;11.30;99.90
57088;DHT22;42965;52.846;6.614;2022-12-31T05:18:17;11.30;99.90
57088;DHT22;42965;52.846;6.614;2022-12-31T05:20:44;11.30;99.90
57088;DHT22;42965;52.846;6.614;2022-12-31T05:23:10;11.20;99.90
57088;DHT22;42965;52.846;6.614;2022-12-31T05:25:38;11.20;99.90
57088;DHT22;42965;52.846;6.614;2022-12-31T05:28:05;11.20;99.90
57088;DHT22;42965;52.846;6.614;2022-12-31T05:30:31;11.20;99.90
57088;DHT22;42965;52.846;6.614;2022-12-31T05:32:57;11.20;99.90
57088;DHT22;42965;52.846;6.614;2022-12-31T05:35:24;11.10;99.90
57088;DHT22;42965;52.846;6.614;2022-12-31T05:37:51;11.20;99.90
57088;DHT22;42965;52.846;6.614;2022-12-31T05:40:18;11.20;99.90
57088;DHT22;42965;52.846;6.614;2022-12-31T05:42:48;11.20;99.90
57088;DHT22;42965;52.846;6.614;2022-12-31T05:45:15;11.20;99.90
57088;DHT22;42965;52.846;6.614;2022-12-31T05:47:42;11.20;99.90
57088;DHT22;42965;52.846;6.614;2022-12-31T05:50:09;11.30;99.90
57088;DHT22;42965;52.846;6.614;2022-12-31T05:52:53;11.20;99.90
57088;DHT22;42965;52.846;6.614;2022-12-31T05:55:19;11.30;99.90
57088;DHT22;42965;52.846;6.614;2022-12-31T05:57:46;11.30;99.90
57088;DHT22;42965;52.846;6.614;2022-12-31T06:00:12;11.30;99.90
57088;DHT22;42965;52.846;6.614;2022-12-31T06:02:42;11.30;99.90
57088;DHT22;42965;52.846;6.614;2022-12-31T06:05:08;11.30;99.90
57088;DHT22;42965;52.846;6.614;2022-12-31T06:07:35;11.40;99.90
57088;DHT22;42965;52.846;6.614;2022-12-31T06:10:04;11.40;99.90
57088;DHT22;42965;52.846;6.614;2022-12-31T06:12:35;11.40;99.90
57088;DHT22;42965;52.846;6.614;2022-12-31T06:15:01;11.40;99.90
57088;DHT22;42965;52.846;6.614;2022-12-31T06:17:29;11.40;99.90
57088;DHT22;42965;52.846;6.614;2022-12-31T06:19:58;11.40;99.90
57088;DHT22;42965;52.846;6.614;2022-12-31T06:22:24;11.40;99.90
57088;DHT22;42965;52.846;6.614;2022-12-31T06:24:51;11.40;99.90
57088;DHT22;42965;52.846;6.614;2022-12-31T06:27:18;11.30;99.90
57088;DHT22;42965;52.846;6.614;2022-12-31T06:29:49;11.40;99.90
57088;DHT22;42965;52.846;6.614;2022-12-31T06:32:16;11.30;99.90
57088;DHT22;42965;52.846;6.614;2022-12-31T06:34:42;11.30;99.90
57088;DHT22;42965;52.846;6.614;2022-12-31T06:37:09;11.30;99.90
57088;DHT22;42965;52.846;6.614;2022-12-31T06:39:36;11.30;99.90
57088;DHT22;42965;52.846;6.614;2022-12-31T06:42:02;11.30;99.90
57088;DHT22;42965;52.846;6.614;2022-12-31T06:44:28;11.30;99.90
57088;DHT22;42965;52.846;6.614;2022-12-31T06:46:55;11.30;99.90
57088;DHT22;42965;52.846;6.614;2022-12-31T06:49:21;11.30;99.90
57088;DHT22;42965;52.846;6.614;2022-12-31T06:51:47;11.30;99.90
57088;DHT22;42965;52.846;6.614;2022-12-31T06:54:13;11.30;99.90
57088;DHT22;42965;52.846;6.614;2022-12-31T06:56:40;11.30;99.90
57088;DHT22;42965;52.846;6.614;2022-12-31T06:59:24;11.30;99.90
57088;DHT22;42965;52.846;6.614;2022-12-31T07:05:12;11.20;99.90
57088;DHT22;42965;52.846;6.614;2022-12-31T07:10:47;11.30;99.90
57088;DHT22;42965;52.846;6.614;2022-12-31T07:18:41;11.20;99.90
57088;DHT22;42965;52.846;6.614;2022-12-31T07:21:16;11.20;99.90
57088;DHT22;42965;52.846;6.614;2022-12-31T07:23:45;11.20;99.90
57088;DHT22;42965;52.846;6.614;2022-12-31T07:31:58;11.20;99.90
57088;DHT22;42965;52.846;6.614;2022-12-31T07:43:35;11.20;99.90
57088;DHT22;42965;52.846;6.614;2022-12-31T07:46:28;11.20;99.90
57088;DHT22;42965;52.846;6.614;2022-12-31T07:48:57;11.30;99.90
57088;DHT22;42965;52.846;6.614;2022-12-31T07:51:24;11.30;99.90
57088;DHT22;42965;52.846;6.614;2022-12-31T07:54:10;11.40;99.90
57088;DHT22;42965;52.846;6.614;2022-12-31T07:56:36;11.40;99.90
57088;DHT22;42965;52.846;6.614;2022-12-31T08:02:06;11.50;99.90
57088;DHT22;42965;52.846;6.614;2022-12-31T08:13:01;11.50;99.90
57088;DHT22;42965;52.846;6.614;2022-12-31T08:15:31;11.60;99.90
57088;DHT22;42965;52.846;6.614;2022-12-31T08:17:58;11.60;99.90
57088;DHT22;42965;52.846;6.614;2022-12-31T08:20:24;11.60;99.90
57088;DHT22;42965;52.846;6.614;2022-12-31T08:31:00;11.70;99.90
57088;DHT22;42965;52.846;6.614;2022-12-31T08:36:51;11.90;99.90
57088;DHT22;42965;52.846;6.614;2022-12-31T08:39:42;11.90;99.90
57088;DHT22;42965;52.846;6.614;2022-12-31T08:42:44;12.10;99.90
57088;DHT22;42965;52.846;6.614;2022-12-31T08:45:37;12.10;99.90
57088;DHT22;42965;52.846;6.614;2022-12-31T08:50:50;12.20;99.90
57088;DHT22;42965;52.846;6.614;2022-12-31T08:53:17;12.30;99.90
57088;DHT22;42965;52.846;6.614;2022-12-31T08:55:45;12.40;99.90
57088;DHT22;42965;52.846;6.614;2022-12-31T09:00:45;12.60;99.90
57088;DHT22;42965;52.846;6.614;2022-12-31T09:06:37;12.60;99.90
57088;DHT22;42965;52.846;6.614;2022-12-31T09:14:53;12.90;99.90
57088;DHT22;42965;52.846;6.614;2022-12-31T09:20:03;13.00;99.90
57088;DHT22;42965;52.846;6.614;2022-12-31T09:22:30;13.00;99.90
57088;DHT22;42965;52.846;6.614;2022-12-31T09:24:56;13.00;99.90
57088;DHT22;42965;52.846;6.614;2022-12-31T09:30:33;13.10;99.90
57088;DHT22;42965;52.846;6.614;2022-12-31T09:33:09;13.10;99.90
57088;DHT22;42965;52.846;6.614;2022-12-31T09:54:52;13.20;99.90
57088;DHT22;42965;52.846;6.614;2022-12-31T09:57:39;13.30;99.90
57088;DHT22;42965;52.846;6.614;2022-12-31T10:00:21;13.40;99.90
57088;DHT22;42965;52.846;6.614;2022-12-31T10:09:02;13.40;99.90
57088;DHT22;42965;52.846;6.614;2022-12-31T10:17:29;13.70;99.90
57088;DHT22;42965;52.846;6.614;2022-12-31T10:34:15;13.70;99.90
57088;DHT22;42965;52.846;6.614;2022-12-31T10:42:02;13.80;99.90
57088;DHT22;42965;52.846;6.614;2022-12-31T10:44:48;13.80;99.90
57088;DHT22;42965;52.846;6.614;2022-12-31T10:47:38;13.90;99.90
57088;DHT22;42965;52.846;6.614;2022-12-31T10:53:15;13.80;99.90
57088;DHT22;42965;52.846;6.614;2022-12-31T10:56:06;13.80;99.90
57088;DHT22;42965;52.846;6.614;2022-12-31T11:21:18;13.40;99.90
57088;DHT22;42965;52.846;6.614;2022-12-31T11:32:11;13.40;99.90
57088;DHT22;42965;52.846;6.614;2022-12-31T11:35:19;13.40;99.90
57088;DHT22;42965;52.846;6.614;2022-12-31T11:40:35;13.60;99.90
57088;DHT22;42965;52.846;6.614;2022-12-31T11:43:33;13.60;99.90
57088;DHT22;42965;52.846;6.614;2022-12-31T11:54:48;13.70;99.90
57088;DHT22;42965;52.846;6.614;2022-12-31T11:57:37;13.70;99.90
57088;DHT22;42965;52.846;6.614;2022-12-31T12:02:43;13.80;99.90
57088;DHT22;42965;52.846;6.614;2022-12-31T12:05:14;13.80;99.90
57088;DHT22;42965;52.846;6.614;2022-12-31T12:07:41;13.90;99.90
57088;DHT22;42965;52.846;6.614;2022-12-31T12:10:30;13.90;99.90
57088;DHT22;42965;52.846;6.614;2022-12-31T12:12:58;13.90;99.90
57088;DHT22;42965;52.846;6.614;2022-12-31T12:15:31;14.00;99.90
57088;DHT22;42965;52.846;6.614;2022-12-31T12:18:07;14.00;99.90
57088;DHT22;42965;52.846;6.614;2022-12-31T12:20:36;14.00;99.90
57088;DHT22;42965;52.846;6.614;2022-12-31T12:23:18;14.00;99.90
57088;DHT22;42965;52.846;6.614;2022-12-31T12:25:49;14.00;99.90
57088;DHT22;42965;52.846;6.614;2022-12-31T12:28:24;14.00;99.90
57088;DHT22;42965;52.846;6.614;2022-12-31T12:31:03;14.00;99.90
57088;DHT22;42965;52.846;6.614;2022-12-31T12:33:41;13.90;99.90
57088;DHT22;42965;52.846;6.614;2022-12-31T12:36:14;13.90;99.90
57088;DHT22;42965;52.846;6.614;2022-12-31T12:38:42;13.90;99.90
57088;DHT22;42965;52.846;6.614;2022-12-31T12:41:26;13.90;99.90
57088;DHT22;42965;52.846;6.614;2022-12-31T12:44:05;13.80;99.90
57088;DHT22;42965;52.846;6.614;2022-12-31T12:46:44;13.90;99.90
57088;DHT22;42965;52.846;6.614;2022-12-31T12:49:25;13.90;99.90
57088;DHT22;42965;52.846;6.614;2022-12-31T12:52:12;13.80;99.90
57088;DHT22;42965;52.846;6.614;2022-12-31T13:03:51;13.80;99.90
57088;DHT22;42965;52.846;6.614;2022-12-31T13:17:38;13.80;99.90
57088;DHT22;42965;52.846;6.614;2022-12-31T13:20:36;13.80;99.90
57088;DHT22;42965;52.846;6.614;2022-12-31T13:23:21;13.80;99.90
57088;DHT22;42965;52.846;6.614;2022-12-31T13:26:12;13.80;99.90
57088;DHT22;42965;52.846;6.614;2022-12-31T13:28:42;13.70;99.90
57088;DHT22;42965;52.846;6.614;2022-12-31T13:31:18;13.70;99.90
57088;DHT22;42965;52.846;6.614;2022-12-31T13:34:03;13.70;99.90
57088;DHT22;42965;52.846;6.614;2022-12-31T13:36:32;13.70;99.90
57088;DHT22;42965;52.846;6.614;2022-12-31T13:39:01;13.70;99.90
57088;DHT22;42965;52.846;6.614;2022-12-31T13:41:37;13.60;99.90
57088;DHT22;42965;52.846;6.614;2022-12-31T13:44:16;13.70;99.90
57088;DHT22;42965;52.846;6.614;2022-12-31T13:52:23;13.50;99.90
57088;DHT22;42965;52.846;6.614;2022-12-31T13:57:50;13.50;99.90
57088;DHT22;42965;52.846;6.614;2022-12-31T14:00:29;13.50;99.90
57088;DHT22;42965;52.846;6.614;2022-12-31T14:03:39;13.60;99.90
57088;DHT22;42965;52.846;6.614;2022-12-31T14:09:06;13.50;99.90
57088;DHT22;42965;52.846;6.614;2022-12-31T14:22:29;13.60;99.90
57088;DHT22;42965;52.846;6.614;2022-12-31T14:25:00;13.60;99.90
57088;DHT22;42965;52.846;6.614;2022-12-31T14:27:28;13.70;99.90
57088;DHT22;42965;52.846;6.614;2022-12-31T14:30:28;13.70;99.90
57088;DHT22;42965;52.846;6.614;2022-12-31T14:33:04;13.80;99.90
57088;DHT22;42965;52.846;6.614;2022-12-31T14:38:53;13.80;99.90
57088;DHT22;42965;52.846;6.614;2022-12-31T14:49:57;13.90;99.90
57088;DHT22;42965;52.846;6.614;2022-12-31T14:52:32;13.90;99.90
57088;DHT22;42965;52.846;6.614;2022-12-31T14:57:37;14.00;99.90
57088;DHT22;42965;52.846;6.614;2022-12-31T15:00:29;14.00;99.90
57088;DHT22;42965;52.846;6.614;2022-12-31T15:03:18;14.00;99.90
57088;DHT22;42965;52.846;6.614;2022-12-31T15:06:05;14.00;99.90
57088;DHT22;42965;52.846;6.614;2022-12-31T15:14:35;14.00;99.90
57088;DHT22;42965;52.846;6.614;2022-12-31T15:17:43;14.00;99.90
57088;DHT22;42965;52.846;6.614;2022-12-31T15:20:51;14.00;99.90
57088;DHT22;42965;52.846;6.614;2022-12-31T15:23:20;14.00;99.90
57088;DHT22;42965;52.846;6.614;2022-12-31T15:25:59;14.00;99.90
57088;DHT22;42965;52.846;6.614;2022-12-31T15:28:30;14.00;99.90
57088;DHT22;42965;52.846;6.614;2022-12-31T15:31:00;14.00;99.90
57088;DHT22;42965;52.846;6.614;2022-12-31T15:35:57;14.00;99.90
57088;DHT22;42965;52.846;6.614;2022-12-31T15:38:37;14.00;99.90
57088;DHT22;42965;52.846;6.614;2022-12-31T15:41:35;14.00;99.90
57088;DHT22;42965;52.846;6.614;2022-12-31T15:44:24;14.00;99.90
57088;DHT22;42965;52.846;6.614;2022-12-31T15:47:21;14.00;99.90
57088;DHT22;42965;52.846;6.614;2022-12-31T15:49:52;14.00;99.90
57088;DHT22;42965;52.846;6.614;2022-12-31T15:52:31;13.90;99.90
57088;DHT22;42965;52.846;6.614;2022-12-31T15:55:03;13.90;99.90
57088;DHT22;42965;52.846;6.614;2022-12-31T15:57:38;14.00;99.90
57088;DHT22;42965;52.846;6.614;2022-12-31T16:00:18;13.90;99.90
57088;DHT22;42965;52.846;6.614;2022-12-31T16:02:46;13.90;99.90
57088;DHT22;42965;52.846;6.614;2022-12-31T16:05:22;13.90;99.90
57088;DHT22;42965;52.846;6.614;2022-12-31T16:07:57;13.80;99.90
57088;DHT22;42965;52.846;6.614;2022-12-31T16:10:30;13.80;99.90
57088;DHT22;42965;52.846;6.614;2022-12-31T16:12:56;13.80;99.90
57088;DHT22;42965;52.846;6.614;2022-12-31T16:15:29;13.80;99.90
57088;DHT22;42965;52.846;6.614;2022-12-31T16:18:09;13.70;99.90
57088;DHT22;42965;52.846;6.614;2022-12-31T16:20:43;13.80;99.90
57088;DHT22;42965;52.846;6.614;2022-12-31T16:23:22;13.80;99.90
57088;DHT22;42965;52.846;6.614;2022-12-31T16:25:51;13.70;99.90
57088;DHT22;42965;52.846;6.614;2022-12-31T16:28:21;13.70;99.90
57088;DHT22;42965;52.846;6.614;2022-12-31T16:31:05;13.70;99.90
57088;DHT22;42965;52.846;6.614;2022-12-31T16:33:32;13.70;99.90
57088;DHT22;42965;52.846;6.614;2022-12-31T16:36:00;13.70;99.90
57088;DHT22;42965;52.846;6.614;2022-12-31T16:38:39;13.60;99.90
57088;DHT22;42965;52.846;6.614;2022-12-31T16:41:14;13.60;99.90
57088;DHT22;42965;52.846;6.614;2022-12-31T16:43:42;13.60;99.90
57088;DHT22;42965;52.846;6.614;2022-12-31T16:46:27;13.60;99.90
57088;DHT22;42965;52.846;6.614;2022-12-31T16:48:59;13.60;99.90
57088;DHT22;42965;52.846;6.614;2022-12-31T16:51:30;13.60;99.90
57088;DHT22;42965;52.846;6.614;2022-12-31T16:53:57;13.60;99.90
57088;DHT22;42965;52.846;6.614;2022-12-31T16:56:35;13.60;99.90
57088;DHT22;42965;52.846;6.614;2022-12-31T16:59:25;13.60;99.90
57088;DHT22;42965;52.846;6.614;2022-12-31T17:01:52;13.50;99.90
57088;DHT22;42965;52.846;6.614;2022-12-31T17:04:23;13.50;99.90
57088;DHT22;42965;52.846;6.614;2022-12-31T17:06:49;13.50;99.90
57088;DHT22;42965;52.846;6.614;2022-12-31T17:09:18;13.50;99.90
57088;DHT22;42965;52.846;6.614;2022-12-31T17:11:57;13.50;99.90
57088;DHT22;42965;52.846;6.614;2022-12-31T17:14:49;13.50;99.90
57088;DHT22;42965;52.846;6.614;2022-12-31T17:17:25;13.40;99.90
57088;DHT22;42965;52.846;6.614;2022-12-31T17:19:57;13.40;99.90
57088;DHT22;42965;52.846;6.614;2022-12-31T17:22:33;13.40;99.90
57088;DHT22;42965;52.846;6.614;2022-12-31T17:25:05;13.40;99.90
57088;DHT22;42965;52.846;6.614;2022-12-31T17:27:34;13.40;99.90
57088;DHT22;42965;52.846;6.614;2022-12-31T17:35:38;13.40;99.90
57088;DHT22;42965;52.846;6.614;2022-12-31T17:41:01;13.40;99.90
57088;DHT22;42965;52.846;6.614;2022-12-31T17:43:32;13.40;99.90
57088;DHT22;42965;52.846;6.614;2022-12-31T17:45:59;13.40;99.90
57088;DHT22;42965;52.846;6.614;2022-12-31T17:48:25;13.40;99.90
57088;DHT22;42965;52.846;6.614;2022-12-31T17:50:58;13.40;99.90
57088;DHT22;42965;52.846;6.614;2022-12-31T17:53:26;13.40;99.90
57088;DHT22;42965;52.846;6.614;2022-12-31T17:55:55;13.40;99.90
57088;DHT22;42965;52.846;6.614;2022-12-31T17:58:41;13.50;99.90
57088;DHT22;42965;52.846;6.614;2022-12-31T18:01:08;13.50;99.90
57088;DHT22;42965;52.846;6.614;2022-12-31T18:03:35;13.50;99.90
57088;DHT22;42965;52.846;6.614;2022-12-31T18:06:01;13.60;99.90
57088;DHT22;42965;52.846;6.614;2022-12-31T18:08:28;13.50;99.90
57088;DHT22;42965;52.846;6.614;2022-12-31T18:10:54;13.50;99.90
57088;DHT22;42965;52.846;6.614;2022-12-31T18:13:25;13.60;99.90
57088;DHT22;42965;52.846;6.614;2022-12-31T18:15:52;13.60;99.90
57088;DHT22;42965;52.846;6.614;2022-12-31T18:18:27;13.60;99.90
57088;DHT22;42965;52.846;6.614;2022-12-31T18:20:57;13.50;99.90
57088;DHT22;42965;52.846;6.614;2022-12-31T18:23:27;13.50;99.90
57088;DHT22;42965;52.846;6.614;2022-12-31T18:25:54;13.50;99.90
57088;DHT22;42965;52.846;6.614;2022-12-31T18:28:20;13.50;99.90
57088;DHT22;42965;52.846;6.614;2022-12-31T18:30:47;13.40;99.90
57088;DHT22;42965;52.846;6.614;2022-12-31T18:33:14;13.40;99.90
57088;DHT22;42965;52.846;6.614;2022-12-31T18:35:51;13.50;99.90
57088;DHT22;42965;52.846;6.614;2022-12-31T18:38:19;13.50;99.90
57088;DHT22;42965;52.846;6.614;2022-12-31T18:40:56;13.50;99.90
57088;DHT22;42965;52.846;6.614;2022-12-31T18:43:24;13.50;99.90
57088;DHT22;42965;52.846;6.614;2022-12-31T18:45:51;13.50;99.90
57088;DHT22;42965;52.846;6.614;2022-12-31T18:48:18;13.50;99.90
57088;DHT22;42965;52.846;6.614;2022-12-31T18:50:45;13.60;99.90
57088;DHT22;42965;52.846;6.614;2022-12-31T18:53:15;13.60;99.90
57088;DHT22;42965;52.846;6.614;2022-12-31T18:55:52;13.60;99.90
57088;DHT22;42965;52.846;6.614;2022-12-31T18:58:19;13.60;99.90
57088;DHT22;42965;52.846;6.614;2022-12-31T19:00:47;13.80;99.90
57088;DHT22;42965;52.846;6.614;2022-12-31T19:03:19;13.80;99.90
57088;DHT22;42965;52.846;6.614;2022-12-31T19:05:46;14.00;99.90
57088;DHT22;42965;52.846;6.614;2022-12-31T19:08:16;14.10;99.90
57088;DHT22;42965;52.846;6.614;2022-12-31T19:10:43;14.00;99.90
57088;DHT22;42965;52.846;6.614;2022-12-31T19:13:13;14.20;99.90
57088;DHT22;42965;52.846;6.614;2022-12-31T19:15:45;14.20;99.90
57088;DHT22;42965;52.846;6.614;2022-12-31T19:18:12;14.20;99.90
57088;DHT22;42965;52.846;6.614;2022-12-31T19:20:39;14.20;99.90
57088;DHT22;42965;52.846;6.614;2022-12-31T19:23:13;14.20;99.90
57088;DHT22;42965;52.846;6.614;2022-12-31T19:25:41;14.30;99.90
57088;DHT22;42965;52.846;6.614;2022-12-31T19:28:32;14.50;99.90
57088;DHT22;42965;52.846;6.614;2022-12-31T19:30:58;14.60;99.90
57088;DHT22;42965;52.846;6.614;2022-12-31T19:33:24;14.80;99.90
57088;DHT22;42965;52.846;6.614;2022-12-31T19:35:50;14.80;99.90
57088;DHT22;42965;52.846;6.614;2022-12-31T19:38:18;14.90;99.90
57088;DHT22;42965;52.846;6.614;2022-12-31T19:40:45;14.90;99.90
57088;DHT22;42965;52.846;6.614;2022-12-31T19:43:13;14.90;99.90
57088;DHT22;42965;52.846;6.614;2022-12-31T19:45:43;14.90;99.90
57088;DHT22;42965;52.846;6.614;2022-12-31T19:48:11;14.90;99.90
57088;DHT22;42965;52.846;6.614;2022-12-31T19:50:46;14.90;99.90
57088;DHT22;42965;52.846;6.614;2022-12-31T19:53:19;14.90;99.90
57088;DHT22;42965;52.846;6.614;2022-12-31T19:55:47;15.00;99.90
57088;DHT22;42965;52.846;6.614;2022-12-31T19:58:24;15.10;99.90
57088;DHT22;42965;52.846;6.614;2022-12-31T20:00:52;15.10;99.90
57088;DHT22;42965;52.846;6.614;2022-12-31T20:03:19;15.00;99.90
57088;DHT22;42965;52.846;6.614;2022-12-31T20:05:45;15.00;99.90
57088;DHT22;42965;52.846;6.614;2022-12-31T20:08:12;15.00;99.90
57088;DHT22;42965;52.846;6.614;2022-12-31T20:10:42;15.10;99.90
57088;DHT22;42965;52.846;6.614;2022-12-31T20:13:09;15.10;99.90
57088;DHT22;42965;52.846;6.614;2022-12-31T20:15:38;15.10;99.90
57088;DHT22;42965;52.846;6.614;2022-12-31T20:18:04;15.10;99.90
57088;DHT22;42965;52.846;6.614;2022-12-31T20:20:31;14.90;99.90
57088;DHT22;42965;52.846;6.614;2022-12-31T20:22:57;15.00;99.90
57088;DHT22;42965;52.846;6.614;2022-12-31T20:25:24;15.00;99.90
57088;DHT22;42965;52.846;6.614;2022-12-31T20:27:52;15.10;99.90